Time;durP1;ratioP1;P1;durP2;ratioP2;P2;SDS_P1;SDS_P2;PMS_P1;PMS_P2;Temp;Humidity;BMP_temperature;BMP_pressure;BME280_temperature;BME280_humidity;BME280_pressure;Samples;Min_cycle;Max_cycle;Signal;HPM_P1;HPM_P2
2022/03/22 00:00:59;;;;;;;21.17;12.60;;;;;;;4.64;nan;-23946.03;5053469;28;20209;-72
2022/03/22 00:03:25;;;;;;;22.40;12.30;;;;;;;4.71;nan;-23948.03;5053485;28;20181;-70
2022/03/22 00:05:54;;;;;;;29.20;12.00;;;;;;;4.47;nan;-23941.31;5052317;28;20232;-70
2022/03/22 00:08:20;;;;;;;21.30;12.17;;;;;;;4.79;nan;-23950.28;5053825;28;20613;-70
2022/03/22 00:10:46;;;;;;;22.43;11.47;;;;;;;4.95;nan;-23954.72;5068681;28;20304;-70
2022/03/22 00:13:12;;;;;;;17.60;11.10;;;;;;;4.35;nan;-23938.06;5073227;28;20200;-69
2022/03/22 00:15:37;;;;;;;20.23;11.80;;;;;;;4.87;nan;-23952.56;5073343;28;20184;-69
2022/03/22 00:18:04;;;;;;;19.90;11.40;;;;;;;5.04;nan;-23957.25;5073160;28;20257;-70
2022/03/22 00:20:30;;;;;;;21.40;12.00;;;;;;;4.61;nan;-23945.31;5072691;28;20185;-69
2022/03/22 00:22:56;;;;;;;18.33;11.10;;;;;;;5.14;nan;-23960.09;5073470;28;20174;-69
2022/03/22 00:25:22;;;;;;;20.37;11.13;;;;;;;4.88;nan;-23952.84;5072689;28;20174;-69
2022/03/22 00:27:54;;;;;;;20.73;11.37;;;;;;;5.15;nan;-23960.41;5072731;28;20232;-69
2022/03/22 00:30:30;;;;;;;17.73;10.63;;;;;;;4.77;nan;-23949.88;5072284;28;20215;-70
2022/03/22 00:32:58;;;;;;;17.87;10.90;;;;;;;5.36;nan;-23966.22;5072598;28;20224;-70
2022/03/22 00:35:25;;;;;;;19.70;10.57;;;;;;;5.42;nan;-23968.06;5073267;28;20214;-70
2022/03/22 00:37:53;;;;;;;17.30;10.67;;;;;;;4.98;nan;-23955.69;5072685;28;20260;-70
2022/03/22 00:40:20;;;;;;;20.93;11.40;;;;;;;5.05;nan;-23957.69;5073084;28;20206;-70
2022/03/22 00:42:48;;;;;;;17.93;10.40;;;;;;;5.27;nan;-23963.81;5054675;28;20192;-69
2022/03/22 00:45:16;;;;;;;17.23;9.77;;;;;;;5.07;nan;-23958.25;5072152;28;20206;-70
2022/03/22 00:47:46;;;;;;;18.50;10.20;;;;;;;5.56;nan;-23971.91;5073032;28;20174;-69
2022/03/22 00:50:14;;;;;;;17.60;10.33;;;;;;;5.62;nan;-23973.75;5072671;28;20177;-70
2022/03/22 00:52:40;;;;;;;19.40;10.37;;;;;;;5.23;nan;-23962.81;5072594;28;20189;-69
2022/03/22 00:55:12;;;;;;;15.53;10.23;;;;;;;5.08;nan;-23958.41;5072357;28;20174;-71
2022/03/22 00:57:39;;;;;;;15.97;10.33;;;;;;;5.22;nan;-23962.53;5072515;28;20158;-69
2022/03/22 01:00:08;;;;;;;19.47;10.53;;;;;;;5.65;nan;-23974.47;5072440;28;20193;-69
2022/03/22 01:02:49;;;;;;;17.67;10.20;;;;;;;5.62;nan;-23973.63;5072589;28;20181;-69
2022/03/22 01:05:17;;;;;;;19.30;11.00;;;;;;;5.20;nan;-23961.97;5072444;28;20180;-69
2022/03/22 01:07:45;;;;;;;17.90;10.60;;;;;;;5.62;nan;-23973.63;5072409;28;20661;-69
2022/03/22 01:10:13;;;;;;;18.13;9.73;;;;;;;5.28;nan;-23964.22;5072203;28;20252;-69
2022/03/22 01:12:41;;;;;;;17.97;10.43;;;;;;;5.51;nan;-23970.63;5072072;28;20212;-69
2022/03/22 01:15:10;;;;;;;17.23;10.30;;;;;;;5.66;nan;-23974.91;5072051;28;20174;-70
2022/03/22 01:17:39;;;;;;;19.43;10.63;;;;;;;5.65;nan;-23974.47;5072393;28;20257;-69
2022/03/22 01:20:10;;;;;;;16.80;10.03;;;;;;;5.36;nan;-23966.38;5072213;28;20311;-69
2022/03/22 01:22:41;;;;;;;16.20;9.90;;;;;;;5.36;nan;-23966.22;5071937;28;20334;-69
2022/03/22 01:25:13;;;;;;;17.80;10.03;;;;;;;5.65;nan;-23974.59;5071648;28;20170;-69
2022/03/22 01:27:39;;;;;;;16.77;9.87;;;;;;;4.21;nan;-23933.94;5072109;28;20170;-69
2022/03/22 01:30:07;;;;;;;19.27;10.43;;;;;;;5.29;nan;-23964.50;5071714;28;20174;-70
2022/03/22 01:32:33;;;;;;;16.80;10.63;;;;;;;5.64;nan;-23974.31;5071629;28;20283;-70
2022/03/22 01:34:58;;;;;;;16.83;9.87;;;;;;;5.41;nan;-23967.78;5074080;28;20193;-70
2022/03/22 01:37:24;;;;;;;17.87;9.40;;;;;;;5.22;nan;-23962.53;5091592;28;20234;-70
2022/03/22 01:39:49;;;;;;;15.63;9.40;;;;;;;4.55;nan;-23943.47;5085001;28;20247;-70
2022/03/22 01:42:14;;;;;;;15.60;9.67;;;;;;;5.58;nan;-23972.47;5071367;28;20204;-69
2022/03/22 01:44:40;;;;;;;16.27;10.07;;;;;;;5.33;nan;-23965.66;5084350;28;20640;-69
2022/03/22 01:47:06;;;;;;;19.03;9.67;;;;;;;5.96;nan;-23983.28;5091940;28;20169;-71
2022/03/22 01:49:31;;;;;;;17.80;9.40;;;;;;;5.49;nan;-23969.91;5092088;28;20624;-70
2022/03/22 01:51:57;;;;;;;17.97;9.20;;;;;;;5.44;nan;-23968.50;5091560;28;20169;-69
2022/03/22 01:54:23;;;;;;;16.47;9.53;;;;;;;5.84;nan;-23979.72;5091521;28;20644;-72
2022/03/22 01:56:49;;;;;;;17.87;9.63;;;;;;;5.79;nan;-23978.44;5092007;28;20675;-71
2022/03/22 01:59:16;;;;;;;16.10;9.57;;;;;;;5.67;nan;-23975.03;5092559;28;20593;-69
2022/03/22 02:07:14;;;;;;;18.73;9.93;;;;;;;5.97;nan;-23983.41;5092083;28;20238;-70
2022/03/22 02:09:40;;;;;;;15.40;9.70;;;;;;;5.87;nan;-23980.72;5091680;28;20637;-69
2022/03/22 02:12:06;;;;;;;17.43;9.97;;;;;;;6.16;nan;-23988.81;5091616;28;20203;-69
2022/03/22 02:14:32;;;;;;;16.07;9.90;;;;;;;5.69;nan;-23975.75;5091715;28;20177;-70
2022/03/22 02:16:57;;;;;;;22.03;9.80;;;;;;;5.72;nan;-23976.47;5091161;28;20179;-69
2022/03/22 02:19:23;;;;;;;17.37;10.67;;;;;;;5.63;nan;-23974.03;5091744;28;20201;-70
2022/03/22 02:21:57;;;;;;;17.80;10.60;;;;;;;5.97;nan;-23983.56;5091974;28;20189;-70
2022/03/22 02:24:22;;;;;;;17.87;10.60;;;;;;;6.04;nan;-23985.41;5091481;28;20632;-70
2022/03/22 02:26:47;;;;;;;19.97;10.73;;;;;;;6.31;nan;-23993.09;5091318;28;20230;-70
2022/03/22 02:29:13;;;;;;;17.37;10.57;;;;;;;6.23;nan;-23990.81;5073321;28;20232;-69
2022/03/22 02:31:38;;;;;;;16.83;10.53;;;;;;;5.87;nan;-23980.59;5091051;28;20177;-69
2022/03/22 02:34:03;;;;;;;22.83;11.20;;;;;;;6.21;nan;-23990.25;5091153;28;20683;-69
2022/03/22 02:36:29;;;;;;;28.13;11.37;;;;;;;6.23;nan;-23990.81;5090263;28;20181;-70
2022/03/22 02:38:54;;;;;;;18.50;10.63;;;;;;;6.31;nan;-23992.94;5090688;28;20299;-69
2022/03/22 02:41:23;;;;;;;17.73;10.83;;;;;;;5.82;nan;-23979.31;5091154;28;20617;-70
2022/03/22 02:43:49;;;;;;;18.57;10.93;;;;;;;5.86;nan;-23980.28;5091031;28;20169;-70
2022/03/22 02:46:15;;;;;;;21.07;11.40;;;;;;;6.29;nan;-23992.50;5090517;28;20177;-70
2022/03/22 02:48:41;;;;;;;19.60;11.40;;;;;;;6.46;nan;-23997.19;5090950;28;20204;-70
2022/03/22 02:51:07;;;;;;;17.10;10.47;;;;;;;5.91;nan;-23981.88;5090946;28;20181;-70
2022/03/22 02:53:33;;;;;;;23.23;11.47;;;;;;;6.42;nan;-23996.06;5090910;28;20193;-70
2022/03/22 02:55:59;;;;;;;30.77;11.20;;;;;;;6.42;nan;-23996.22;5094693;28;20183;-70
2022/03/22 02:58:24;;;;;;;17.57;10.90;;;;;;;6.51;nan;-23998.63;5094707;28;20268;-69
2022/03/22 03:00:49;;;;;;;23.57;11.83;;;;;;;6.50;nan;-23998.34;5076093;28;20177;-70
2022/03/22 03:03:17;;;;;;;21.20;11.53;;;;;;;6.41;nan;-23995.78;5094233;28;20172;-69
2022/03/22 03:05:43;;;;;;;19.93;10.87;;;;;;;6.14;nan;-23988.41;5076180;28;20215;-69
2022/03/22 03:08:08;;;;;;;20.07;11.17;;;;;;;6.01;nan;-23984.69;5092578;28;20238;-69
2022/03/22 03:10:33;;;;;;;17.27;10.90;;;;;;;6.42;nan;-23996.22;5075176;28;20754;-70
2022/03/22 03:13:04;;;;;;;18.57;11.90;;;;;;;6.51;nan;-23998.63;5094538;28;20245;-70
2022/03/22 03:15:30;;;;;;;20.23;11.30;;;;;;;6.33;nan;-23993.66;5076057;28;20184;-70
2022/03/22 03:17:56;;;;;;;18.70;11.77;;;;;;;6.48;nan;-23997.75;5094803;28;20537;-70
2022/03/22 03:20:22;;;;;;;18.67;11.73;;;;;;;6.30;nan;-23992.78;5094302;28;20174;-70
2022/03/22 03:22:47;;;;;;;20.43;11.40;;;;;;;6.58;nan;-24000.75;5094289;28;20181;-70
2022/03/22 03:25:13;;;;;;;22.87;11.50;;;;;;;6.03;nan;-23985.13;5076417;28;20173;-70
2022/03/22 03:27:38;;;;;;;21.83;11.73;;;;;;;6.48;nan;-23997.91;5094708;28;20643;-69
2022/03/22 03:30:05;;;;;;;19.60;11.50;;;;;;;6.34;nan;-23993.94;5094252;28;20565;-69
2022/03/22 03:32:32;;;;;;;19.70;11.80;;;;;;;6.08;nan;-23986.56;5094377;28;20193;-69
2022/03/22 03:34:57;;;;;;;19.13;11.47;;;;;;;6.50;nan;-23998.34;5094315;28;20180;-69
2022/03/22 03:37:24;;;;;;;19.57;11.73;;;;;;;6.12;nan;-23987.69;5090626;28;20181;-70
2022/03/22 03:39:50;;;;;;;19.17;11.60;;;;;;;6.37;nan;-23994.66;5089162;28;20185;-68
2022/03/22 03:42:16;;;;;;;20.10;11.53;;;;;;;6.13;nan;-23987.97;5079873;28;20177;-69
2022/03/22 03:47:26;;;;;;;19.83;11.90;;;;;;;5.93;nan;-23982.44;5080591;28;20197;-69
2022/03/22 03:49:52;;;;;;;22.43;11.70;;;;;;;6.44;nan;-23996.63;5073812;28;20564;-70
2022/03/22 03:52:19;;;;;;;21.87;11.83;;;;;;;6.38;nan;-23994.94;5073507;28;20201;-70
2022/03/22 03:54:45;;;;;;;20.20;11.77;;;;;;;6.39;nan;-23995.34;5073869;28;20220;-70
2022/03/22 03:57:12;;;;;;;19.87;12.10;;;;;;;5.96;nan;-23983.13;5073716;28;20178;-69
2022/03/22 03:59:39;;;;;;;21.33;12.20;;;;;;;6.03;nan;-23985.28;5073615;28;20178;-69
2022/03/22 04:02:08;;;;;;;21.17;12.13;;;;;;;6.15;nan;-23988.53;4755567;28;20877;-71
2022/03/22 04:04:37;;;;;;;20.13;12.20;;;;;;;5.89;nan;-23981.16;4463193;28;21071;-72
2022/03/22 04:07:04;;;;;;;22.10;12.20;;;;;;;6.18;nan;-23989.53;4477105;28;21344;-70
2022/03/22 04:09:31;;;;;;;20.07;11.10;;;;;;;6.33;nan;-23993.66;4697700;28;20227;-70
2022/03/22 04:11:57;;;;;;;23.63;13.07;;;;;;;6.43;nan;-23996.50;5093538;28;20205;-70
2022/03/22 04:14:23;;;;;;;21.90;13.00;;;;;;;6.51;nan;-23998.75;5093071;28;20613;-70
2022/03/22 04:16:49;;;;;;;22.83;12.13;;;;;;;6.49;nan;-23998.19;5093643;28;20276;-70
2022/03/22 04:19:15;;;;;;;20.70;12.33;;;;;;;5.94;nan;-23982.72;5093409;28;20652;-70
2022/03/22 04:21:40;;;;;;;20.20;11.83;;;;;;;6.03;nan;-23985.13;5093595;28;20165;-70
2022/03/22 04:24:07;;;;;;;20.97;12.00;;;;;;;6.42;nan;-23996.06;5086406;28;20196;-71
2022/03/22 04:26:38;;;;;;;23.17;12.73;;;;;;;6.54;nan;-23999.63;5084468;28;20234;-70
2022/03/22 04:34:33;;;;;;;22.70;12.43;;;;;;;6.55;nan;-23999.75;5085528;28;20340;-70
2022/03/22 04:36:59;;;;;;;24.43;11.67;;;;;;;6.02;nan;-23984.84;5086006;28;20298;-70
2022/03/22 04:39:27;;;;;;;23.83;12.33;;;;;;;6.46;nan;-23997.34;5085077;28;20173;-70
2022/03/22 04:41:54;;;;;;;21.00;12.57;;;;;;;5.89;nan;-23981.28;5089555;28;20185;-70
2022/03/22 04:44:19;;;;;;;22.77;12.60;;;;;;;5.96;nan;-23983.13;5077500;28;20174;-70
2022/03/22 04:46:45;;;;;;;25.03;12.57;;;;;;;5.98;nan;-23983.72;5089879;28;20242;-69
2022/03/22 04:49:11;;;;;;;20.50;12.43;;;;;;;6.35;nan;-23994.06;5092335;28;20577;-71
2022/03/22 04:57:04;;;;;;;21.80;12.17;;;;;;;6.37;nan;-23994.78;5088409;28;20266;-69
2022/03/22 04:59:30;;;;;;;22.30;12.53;;;;;;;6.38;nan;-23994.94;5092462;28;20219;-69
2022/03/22 05:01:55;;;;;;;26.13;12.73;;;;;;;5.75;nan;-23977.44;5090841;28;20179;-70
2022/03/22 05:04:21;;;;;;;23.67;12.37;;;;;;;6.21;nan;-23990.38;5090499;28;20721;-69
2022/03/22 05:06:46;;;;;;;22.80;12.30;;;;;;;6.33;nan;-23993.50;5076488;28;20177;-70
2022/03/22 05:09:12;;;;;;;22.07;12.07;;;;;;;6.50;nan;-23998.47;5089802;28;20192;-70
2022/03/22 05:11:38;;;;;;;22.40;12.03;;;;;;;5.98;nan;-23983.72;5071491;28;20209;-70
2022/03/22 05:14:04;;;;;;;20.20;12.27;;;;;;;6.49;nan;-23998.19;5088511;28;20241;-70
2022/03/22 05:16:29;;;;;;;20.23;12.10;;;;;;;6.08;nan;-23986.56;5075286;28;20584;-70
2022/03/22 05:18:56;;;;;;;23.70;12.97;;;;;;;6.22;nan;-23990.66;5091515;28;20211;-70
2022/03/22 05:21:22;;;;;;;20.60;12.27;;;;;;;6.57;nan;-24000.47;5082433;28;20197;-71
2022/03/22 05:23:48;;;;;;;23.80;12.63;;;;;;;6.66;nan;-24002.88;5088169;28;20264;-71
2022/03/22 05:26:14;;;;;;;22.83;12.83;;;;;;;6.72;nan;-24004.44;5056182;28;20311;-70
2022/03/22 05:28:40;;;;;;;26.90;12.80;;;;;;;6.88;nan;-24009.13;5091697;28;20178;-70
2022/03/22 05:31:08;;;;;;;24.17;13.03;;;;;;;6.92;nan;-24010.25;5083709;28;20174;-70
2022/03/22 05:33:34;;;;;;;24.83;12.30;;;;;;;6.94;nan;-24010.69;5070997;28;20238;-70
2022/03/22 05:36:00;;;;;;;23.50;13.10;;;;;;;7.00;nan;-24012.38;5071618;28;20257;-69
2022/03/22 05:38:25;;;;;;;20.57;12.47;;;;;;;7.02;nan;-24012.94;5071509;28;20192;-70
2022/03/22 05:40:52;;;;;;;22.27;12.77;;;;;;;6.97;nan;-24011.53;5071363;28;20173;-69
2022/03/22 05:43:17;;;;;;;24.30;13.20;;;;;;;6.82;nan;-24007.41;5071583;28;20235;-69
2022/03/22 05:45:49;;;;;;;26.73;13.10;;;;;;;7.07;nan;-24014.38;5071554;28;20256;-70
2022/03/22 05:48:19;;;;;;;25.37;12.67;;;;;;;7.10;nan;-24015.22;5071440;28;20181;-70
2022/03/22 05:50:44;;;;;;;23.33;11.83;;;;;;;6.55;nan;-23999.75;5071338;28;20178;-70
2022/03/22 05:53:10;;;;;;;25.83;13.23;;;;;;;7.07;nan;-24014.38;5071163;28;20280;-70
2022/03/22 05:55:36;;;;;;;22.33;12.90;;;;;;;6.96;nan;-24011.25;5071098;28;20178;-71
2022/03/22 05:58:03;;;;;;;23.30;12.80;;;;;;;7.54;nan;-24027.56;5071521;28;20243;-70
2022/03/22 06:00:28;;;;;;;23.57;12.80;;;;;;;7.44;nan;-24024.88;5071125;28;20162;-71
2022/03/22 06:02:54;;;;;;;21.50;12.73;;;;;;;7.72;nan;-24032.66;5071513;28;20596;-70
2022/03/22 06:05:19;;;;;;;27.27;12.87;;;;;;;7.74;nan;-24033.22;5070840;28;20177;-69
2022/03/22 06:07:45;;;;;;;26.90;13.20;;;;;;;7.83;nan;-24035.63;5079420;28;20565;-70
2022/03/22 06:10:14;;;;;;;21.00;12.30;;;;;;;7.92;nan;-24038.19;5090571;28;20316;-70
2022/03/22 06:12:44;;;;;;;21.73;12.57;;;;;;;7.90;nan;-24037.75;5088909;28;20679;-69
2022/03/22 06:15:15;;;;;;;22.07;12.67;;;;;;;8.05;nan;-24041.72;5091029;28;20204;-71
2022/03/22 06:17:48;;;;;;;21.23;12.67;;;;;;;8.18;nan;-24045.53;5078629;28;20652;-69
2022/03/22 06:20:16;;;;;;;27.03;12.60;;;;;;;7.92;nan;-24038.31;5070623;28;20209;-70
2022/03/22 06:22:45;;;;;;;21.00;12.50;;;;;;;8.47;nan;-24053.63;5088970;28;20185;-69
2022/03/22 06:25:12;;;;;;;22.03;12.50;;;;;;;7.95;nan;-24039.16;5090764;28;20173;-69
2022/03/22 06:27:37;;;;;;;18.07;11.40;;;;;;;8.30;nan;-24048.81;5090672;28;20178;-70
2022/03/22 06:30:07;;;;;;;20.30;11.70;;;;;;;8.75;nan;-24061.53;5093323;28;20581;-71
2022/03/22 06:33:00;;;;;;;20.87;12.17;;;;;;;8.86;nan;-24064.50;5094689;28;20680;-71
2022/03/22 06:35:31;;;;;;;19.53;11.70;;;;;;;8.89;nan;-24065.34;5056636;28;20193;-70
2022/03/22 06:37:58;;;;;;;25.10;12.47;;;;;;;9.09;nan;-24071.03;5094364;28;20307;-70
2022/03/22 06:40:28;;;;;;;27.77;12.03;;;;;;;9.18;nan;-24073.56;5094605;28;20181;-70
2022/03/22 06:42:55;;;;;;;23.47;12.03;;;;;;;9.17;nan;-24073.28;5094450;28;20592;-70
2022/03/22 06:45:20;;;;;;;20.93;11.50;;;;;;;9.18;nan;-24073.56;5094720;28;20169;-71
2022/03/22 06:47:47;;;;;;;20.93;11.13;;;;;;;9.54;nan;-24083.59;5094057;28;20231;-70
2022/03/22 06:50:14;;;;;;;21.03;11.23;;;;;;;9.70;nan;-24088.13;5094759;28;20188;-70
2022/03/22 06:52:40;;;;;;;20.43;11.30;;;;;;;9.49;nan;-24082.19;5094296;28;20223;-70
2022/03/22 06:55:07;;;;;;;21.13;10.97;;;;;;;9.91;nan;-24093.78;5094126;28;20591;-70
2022/03/22 06:57:33;;;;;;;21.40;11.37;;;;;;;10.11;nan;-24099.56;5094345;28;20197;-71
2022/03/22 07:00:00;;;;;;;25.90;11.30;;;;;;;10.13;nan;-24099.97;5094508;28;20507;-70
2022/03/22 07:02:26;;;;;;;22.33;11.10;;;;;;;10.13;nan;-24100.13;5092958;28;20185;-71
2022/03/22 07:04:51;;;;;;;17.77;11.13;;;;;;;10.38;nan;-24106.91;5093910;28;20181;-70
2022/03/22 07:07:17;;;;;;;17.27;10.60;;;;;;;10.47;nan;-24109.44;5080534;28;20185;-71
2022/03/22 07:09:43;;;;;;;22.07;11.47;;;;;;;10.28;nan;-24104.06;5073277;28;20693;-70
2022/03/22 07:12:10;;;;;;;22.23;11.90;;;;;;;9.56;nan;-24084.16;5091832;28;20234;-71
2022/03/22 07:14:38;;;;;;;27.77;11.73;;;;;;;10.74;nan;-24116.91;5093890;28;20201;-71
2022/03/22 07:17:04;;;;;;;25.10;11.77;;;;;;;10.45;nan;-24109.03;5093930;28;20185;-69
2022/03/22 07:19:30;;;;;;;21.50;11.77;;;;;;;11.00;nan;-24124.25;5093925;28;20176;-70
2022/03/22 07:21:57;;;;;;;21.20;11.53;;;;;;;10.73;nan;-24116.63;5093994;28;20629;-71
2022/03/22 07:24:23;;;;;;;20.50;11.17;;;;;;;10.95;nan;-24122.84;5093902;28;20685;-71
2022/03/22 07:26:48;;;;;;;21.50;11.63;;;;;;;11.20;nan;-24129.75;5093880;28;20253;-71
2022/03/22 07:29:14;;;;;;;21.47;11.07;;;;;;;11.38;nan;-24134.97;5080417;28;20178;-69
2022/03/22 07:31:41;;;;;;;18.15;11.40;;;;;;;11.35;nan;-24134.13;5072937;28;20184;-69
2022/03/22 07:34:11;;;;;;;23.65;11.10;;;;;;;11.50;nan;-24138.34;5073252;28;20198;-69
2022/03/22 07:36:39;;;;;;;20.52;10.88;;;;;;;11.67;nan;-24143.00;5091861;28;20181;-69
2022/03/22 07:39:06;;;;;;;20.08;11.23;;;;;;;11.41;nan;-24135.66;5092892;28;20181;-68
2022/03/22 07:41:33;;;;;;;23.15;10.63;;;;;;;11.53;nan;-24139.19;5092177;28;20182;-70
2022/03/22 07:43:58;;;;;;;17.45;10.50;;;;;;;11.31;nan;-24133.00;5072984;28;20265;-71
2022/03/22 07:46:24;;;;;;;20.40;11.35;;;;;;;11.78;nan;-24145.97;5075155;28;20697;-71
2022/03/22 07:48:50;;;;;;;18.80;11.20;;;;;;;11.71;nan;-24144.13;5093149;28;20177;-70
2022/03/22 07:54:00;;;;;;;17.42;10.88;;;;;;;11.88;nan;-24148.91;5092569;28;20338;-71
2022/03/22 07:56:26;;;;;;;24.80;11.43;;;;;;;11.65;nan;-24142.44;5091327;28;20169;-70
2022/03/22 07:58:51;;;;;;;20.30;11.40;;;;;;;12.13;nan;-24155.81;5091656;28;20173;-70
2022/03/22 08:01:17;;;;;;;22.92;10.80;;;;;;;12.43;nan;-24163.97;5091651;28;20287;-71
2022/03/22 08:03:43;;;;;;;26.08;11.05;;;;;;;12.83;nan;-24175.38;5093308;28;20196;-69
2022/03/22 08:06:08;;;;;;;19.70;10.55;;;;;;;12.70;nan;-24171.56;5093426;28;20261;-70
2022/03/22 08:08:34;;;;;;;17.38;9.70;;;;;;;13.02;nan;-24180.56;5093344;28;20259;-69
2022/03/22 08:11:02;;;;;;;18.40;10.65;;;;;;;12.68;nan;-24171.00;5092750;28;20224;-69
2022/03/22 08:13:29;;;;;;;19.35;10.30;;;;;;;12.66;nan;-24170.59;5092039;28;20262;-70
2022/03/22 08:15:55;;;;;;;16.67;10.05;;;;;;;12.94;nan;-24178.31;5075509;28;20182;-71
2022/03/22 08:18:20;;;;;;;15.20;9.90;;;;;;;12.85;nan;-24175.78;5093403;28;20613;-69
2022/03/22 08:20:45;;;;;;;17.45;10.55;;;;;;;13.27;nan;-24187.47;5085855;28;20300;-69
2022/03/22 08:23:11;;;;;;;17.08;10.60;;;;;;;13.64;nan;-24197.84;5072871;28;20174;-69
2022/03/22 08:25:38;;;;;;;18.65;10.27;;;;;;;13.93;nan;-24205.84;5072464;28;20169;-70
2022/03/22 08:28:06;;;;;;;17.67;10.60;;;;;;;14.09;nan;-24210.34;4712290;28;20966;-70
2022/03/22 08:30:33;;;;;;;15.93;9.60;;;;;;;13.76;nan;-24200.94;4596685;28;20193;-70
2022/03/22 08:33:03;;;;;;;18.77;9.85;;;;;;;14.20;nan;-24213.28;5112941;28;20259;-70
2022/03/22 08:35:29;;;;;;;17.58;9.35;;;;;;;13.97;nan;-24206.84;5112831;28;20580;-69
2022/03/22 08:37:55;;;;;;;17.60;10.27;;;;;;;13.85;nan;-24203.59;5112987;28;20173;-69
2022/03/22 08:40:22;;;;;;;19.50;9.65;;;;;;;14.20;nan;-24213.16;5112407;28;20172;-69
2022/03/22 08:42:49;;;;;;;17.02;10.10;;;;;;;14.25;nan;-24214.56;5112502;28;20183;-70
2022/03/22 08:45:25;;;;;;;13.80;9.98;;;;;;;14.20;nan;-24213.28;5113250;28;20172;-71
2022/03/22 08:47:52;;;;;;;15.00;9.27;;;;;;;14.35;nan;-24217.50;5094495;28;20635;-70
2022/03/22 08:50:21;;;;;;;18.42;10.00;;;;;;;14.25;nan;-24214.69;5094575;28;20196;-71
2022/03/22 08:52:47;;;;;;;18.13;10.07;;;;;;;14.82;nan;-24230.53;5111536;28;20601;-70
2022/03/22 08:55:18;;;;;;;14.18;9.50;;;;;;;14.91;nan;-24232.94;5111563;28;20177;-71
2022/03/22 08:57:47;;;;;;;18.23;10.23;;;;;;;14.67;nan;-24226.19;5112667;28;20187;-72
2022/03/22 09:00:14;;;;;;;17.27;9.73;;;;;;;14.99;nan;-24235.31;5112757;28;20238;-72
2022/03/22 09:02:42;;;;;;;15.73;9.68;;;;;;;14.70;nan;-24227.03;5112291;28;20171;-69
2022/03/22 09:07:53;;;;;;;15.95;10.00;;;;;;;14.48;nan;-24221.00;5112435;28;20221;-69
2022/03/22 09:10:23;;;;;;;18.02;9.50;;;;;;;14.48;nan;-24221.16;5112214;28;20269;-69
2022/03/22 09:12:49;;;;;;;18.63;8.85;;;;;;;14.81;nan;-24230.25;5112463;28;20303;-69
2022/03/22 09:15:15;;;;;;;15.15;8.88;;;;;;;15.48;nan;-24248.91;5112842;28;20219;-69
2022/03/22 09:17:41;;;;;;;25.60;9.60;;;;;;;15.78;nan;-24257.00;5112081;28;20194;-70
2022/03/22 09:20:07;;;;;;;15.13;8.82;;;;;;;15.58;nan;-24251.56;5112447;28;20247;-70
2022/03/22 09:22:33;;;;;;;14.60;8.60;;;;;;;15.40;nan;-24246.50;5112092;28;20666;-71
2022/03/22 09:24:59;;;;;;;14.23;8.38;;;;;;;15.52;nan;-24249.75;5112507;28;20259;-71
2022/03/22 09:27:24;;;;;;;12.30;8.57;;;;;;;15.00;nan;-24235.59;5112486;28;20627;-70
2022/03/22 09:29:50;;;;;;;12.02;8.18;;;;;;;14.98;nan;-24235.03;5074137;28;20192;-70
2022/03/22 09:32:15;;;;;;;13.95;8.20;;;;;;;14.82;nan;-24230.53;5085667;28;20751;-69
2022/03/22 09:34:41;;;;;;;15.60;8.43;;;;;;;14.98;nan;-24235.03;5079636;28;20207;-68
2022/03/22 09:37:07;;;;;;;14.43;8.35;;;;;;;14.99;nan;-24235.31;5092155;28;20557;-70
2022/03/22 09:39:34;;;;;;;17.08;7.70;;;;;;;15.21;nan;-24241.34;5078373;28;20644;-70
2022/03/22 09:42:02;;;;;;;13.27;8.63;;;;;;;15.46;nan;-24248.34;5071141;28;20189;-70
2022/03/22 09:44:29;;;;;;;12.57;7.70;;;;;;;15.96;nan;-24261.91;5070918;28;20170;-70
2022/03/22 09:46:56;;;;;;;14.93;7.43;;;;;;;16.05;nan;-24264.44;5070787;28;20208;-70
2022/03/22 09:49:21;;;;;;;11.23;7.15;;;;;;;16.38;nan;-24273.66;5071324;28;20267;-70
2022/03/22 09:51:49;;;;;;;10.68;7.10;;;;;;;16.24;nan;-24269.75;5071318;28;20188;-71
2022/03/22 09:54:22;;;;;;;15.60;7.70;;;;;;;16.21;nan;-24268.91;5071396;28;20201;-71
2022/03/22 09:56:48;;;;;;;11.98;7.22;;;;;;;15.56;nan;-24250.84;5071859;28;20170;-70
2022/03/22 09:59:14;;;;;;;10.55;6.30;;;;;;;14.61;nan;-24224.66;5072783;28;20177;-70
2022/03/22 10:01:40;;;;;;;11.52;6.30;;;;;;;13.83;nan;-24203.03;5088064;28;20181;-70
2022/03/22 10:04:13;;;;;;;10.07;6.35;;;;;;;13.39;nan;-24190.69;5089638;28;20181;-71
2022/03/22 10:07:02;;;;;;;9.77;6.35;;;;;;;13.85;nan;-24203.47;5094414;28;20193;-70
2022/03/22 10:09:32;;;;;;;9.68;6.22;;;;;;;14.03;nan;-24208.53;5067550;28;20229;-70
2022/03/22 10:11:58;;;;;;;11.88;7.00;;;;;;;14.27;nan;-24215.13;5055306;28;20166;-69
2022/03/22 10:14:41;;;;;;;8.20;5.30;;;;;;;14.03;nan;-24208.53;5065791;28;20209;-69
2022/03/22 10:17:15;;;;;;;9.93;5.57;;;;;;;14.06;nan;-24209.50;5074885;28;20162;-68
2022/03/22 10:19:49;;;;;;;9.18;5.90;;;;;;;13.71;nan;-24199.69;5075286;28;20213;-69
2022/03/22 10:22:15;;;;;;;7.90;5.10;;;;;;;14.56;nan;-24223.25;5074465;28;20177;-69
2022/03/22 10:24:45;;;;;;;9.25;5.03;;;;;;;15.09;nan;-24237.97;5073336;28;20679;-69
2022/03/22 10:27:27;;;;;;;10.20;5.90;;;;;;;15.17;nan;-24240.22;5074944;28;20170;-70
2022/03/22 10:29:55;;;;;;;8.55;5.18;;;;;;;15.48;nan;-24248.75;5074843;28;20633;-70
2022/03/22 10:32:33;;;;;;;6.97;4.85;;;;;;;15.09;nan;-24237.97;5074292;28;20204;-71
2022/03/22 10:35:30;;;;;;;10.38;5.00;;;;;;;15.06;nan;-24237.13;5074051;28;20178;-69
2022/03/22 10:38:02;;;;;;;6.85;4.57;;;;;;;15.10;nan;-24238.09;5060919;28;20189;-69
2022/03/22 10:40:35;;;;;;;6.85;4.90;;;;;;;15.49;nan;-24249.03;5074380;28;20189;-72
2022/03/22 10:43:04;;;;;;;8.45;4.05;;;;;;;15.60;nan;-24252.13;5074446;28;20178;-69
2022/03/22 10:46:00;;;;;;;6.53;4.70;;;;;;;15.31;nan;-24244.13;5072236;28;20559;-70
2022/03/22 10:48:30;;;;;;;7.20;4.32;;;;;;;15.23;nan;-24241.88;5073369;28;20190;-69
2022/03/22 10:50:59;;;;;;;9.20;4.82;;;;;;;14.84;nan;-24230.97;5073097;28;20167;-69
2022/03/22 10:53:27;;;;;;;9.40;4.30;;;;;;;14.69;nan;-24226.91;5073342;28;20292;-70
2022/03/22 10:55:54;;;;;;;10.52;4.50;;;;;;;14.37;nan;-24217.94;5073095;28;20220;-70
2022/03/22 10:58:25;;;;;;;7.93;4.72;;;;;;;14.19;nan;-24212.88;5073353;28;20171;-69
2022/03/22 11:00:52;;;;;;;8.05;4.90;;;;;;;14.15;nan;-24211.88;5073873;28;20151;-69
2022/03/22 11:03:19;;;;;;;8.10;4.80;;;;;;;14.34;nan;-24217.06;5073606;28;20653;-70
2022/03/22 11:06:04;;;;;;;11.75;5.10;;;;;;;15.14;nan;-24239.22;5074092;28;20649;-64
2022/03/22 11:08:30;;;;;;;7.43;4.38;;;;;;;15.28;nan;-24243.16;5074040;28;20170;-64
2022/03/22 11:10:56;;;;;;;6.07;3.97;;;;;;;15.28;nan;-24243.16;5090344;28;20220;-64
2022/03/22 11:13:23;;;;;;;5.93;4.28;;;;;;;14.89;nan;-24232.50;5094143;28;20224;-65
2022/03/22 11:15:49;;;;;;;7.60;4.80;;;;;;;15.02;nan;-24236.16;5094132;28;20208;-63
2022/03/22 11:18:18;;;;;;;7.45;4.03;;;;;;;14.64;nan;-24225.50;5094357;28;20165;-65
2022/03/22 11:20:57;;;;;;;8.65;3.88;;;;;;;15.15;nan;-24239.66;5093505;28;20181;-66
2022/03/22 11:23:27;;;;;;;6.95;4.07;;;;;;;15.19;nan;-24240.78;5093841;28;20176;-63
2022/03/22 11:25:53;;;;;;;13.87;4.70;;;;;;;14.65;nan;-24225.63;5092906;28;20404;-70
2022/03/22 11:28:22;;;;;;;8.48;4.50;;;;;;;14.67;nan;-24226.19;5093739;28;20234;-69
2022/03/22 11:30:50;;;;;;;7.95;4.65;;;;;;;14.36;nan;-24217.66;5094075;28;20256;-70
2022/03/22 11:36:14;;;;;;;7.03;3.97;;;;;;;14.82;nan;-24230.53;5093749;28;20212;-69
2022/03/22 11:38:46;;;;;;;10.18;4.82;;;;;;;14.98;nan;-24235.03;5093588;28;20252;-69
2022/03/22 11:44:19;;;;;;;6.88;4.70;;;;;;;15.13;nan;-24238.94;5084167;28;20238;-69
2022/03/22 11:46:46;;;;;;;20.20;5.43;;;;;;;15.03;nan;-24236.44;5079068;28;20218;-69
2022/03/22 11:49:16;;;;;;;6.88;4.85;;;;;;;14.37;nan;-24218.06;5073080;28;20174;-71
2022/03/22 11:51:53;;;;;;;9.65;5.05;;;;;;;14.13;nan;-24211.31;5093332;28;20201;-69
2022/03/22 11:54:19;;;;;;;15.48;6.15;;;;;;;14.24;nan;-24214.28;5093544;28;20544;-69
2022/03/22 11:57:06;;;;;;;9.70;5.93;;;;;;;14.63;nan;-24225.06;5074577;28;20200;-70
2022/03/22 11:59:43;;;;;;;13.18;6.20;;;;;;;14.66;nan;-24225.91;5074842;28;20567;-69
2022/03/22 12:02:17;;;;;;;10.88;5.97;;;;;;;14.45;nan;-24220.16;5092767;28;20200;-70
2022/03/22 12:04:50;;;;;;;13.63;6.90;;;;;;;14.43;nan;-24219.59;5093564;28;20209;-70
2022/03/22 12:07:36;;;;;;;12.98;6.10;;;;;;;14.41;nan;-24219.03;5074657;28;20175;-68